Time;durP1;ratioP1;P1;durP2;ratioP2;P2;SDS_P1;SDS_P2;PMS_P1;PMS_P2;Temp;Humidity;BMP_temperature;BMP_pressure;BME280_temperature;BME280_humidity;BME280_pressure;Samples;Min_cycle;Max_cycle;Signal;HPM_P1;HPM_P2
2021/11/12 00:12:46;;;;;;;66.82;13.40;;;;;;;2.19;100.00;99237.03;4984364;28;20258;-87
2021/11/12 00:15:12;;;;;;;54.72;13.73;;;;;;;2.13;100.00;99236.88;4977010;28;20102;-87
2021/11/12 00:17:40;;;;;;;36.85;14.85;;;;;;;2.06;100.00;99227.19;4982625;28;20035;-87
2021/11/12 00:20:07;;;;;;;70.95;15.00;;;;;;;1.98;100.00;99226.13;4984307;28;20023;-87
2021/11/12 00:22:34;;;;;;;53.83;15.10;;;;;;;2.01;100.00;99226.19;4983865;28;20330;-87
2021/11/12 00:25:02;;;;;;;32.78;13.77;;;;;;;2.11;100.00;99228.16;5003813;28;20077;-87
2021/11/12 00:27:29;;;;;;;46.30;14.27;;;;;;;1.99;100.00;99227.88;5004376;28;20026;-87
2021/11/12 00:35:02;;;;;;;33.03;14.17;;;;;;;2.01;100.00;99221.91;5005619;28;20076;-87
2021/11/12 00:45:33;;;;;;;33.97;11.52;;;;;;;1.90;100.00;99204.31;4983986;28;20027;-87
2021/11/12 00:48:10;;;;;;;45.42;11.80;;;;;;;1.89;100.00;99210.34;4994133;28;20076;-87
2021/11/12 00:55:41;;;;;;;22.60;10.82;;;;;;;1.76;100.00;99205.69;5005315;28;20042;-87
2021/11/12 00:58:09;;;;;;;19.70;10.73;;;;;;;1.71;100.00;99189.16;5004019;28;20025;-87
2021/11/12 01:00:36;;;;;;;42.80;11.48;;;;;;;1.73;100.00;99192.66;5003577;28;20020;-87
2021/11/12 01:03:02;;;;;;;54.58;11.70;;;;;;;1.73;100.00;99197.84;5003556;28;20351;-87
2021/11/12 01:05:30;;;;;;;30.48;12.23;;;;;;;1.78;100.00;99204.03;5003843;28;20019;-87
2021/11/12 01:07:56;;;;;;;53.58;12.25;;;;;;;1.69;100.00;99199.50;5003684;28;20033;-87
2021/11/12 01:10:21;;;;;;;33.65;11.93;;;;;;;1.70;100.00;99197.75;5003390;28;20022;-87
2021/11/12 01:12:46;;;;;;;45.08;11.63;;;;;;;1.74;100.00;99204.81;5003510;28;20014;-87
2021/11/12 01:15:15;;;;;;;21.52;10.80;;;;;;;1.78;100.00;99206.63;5003455;28;20022;-87
2021/11/12 01:17:43;;;;;;;22.38;11.25;;;;;;;1.65;100.00;99195.03;5004781;28;20088;-87
2021/11/12 01:20:10;;;;;;;54.72;12.40;;;;;;;1.66;100.00;99211.50;5003528;28;20093;-87
2021/11/12 01:22:36;;;;;;;27.05;11.23;;;;;;;1.73;100.00;99208.22;5003254;28;20018;-87
2021/11/12 01:25:05;;;;;;;36.70;10.52;;;;;;;1.77;100.00;99216.09;5003425;28;20015;-87
2021/11/12 01:27:32;;;;;;;66.45;11.25;;;;;;;1.74;100.00;99210.00;5003207;28;20348;-87
2021/11/12 01:29:58;;;;;;;21.20;10.15;;;;;;;1.84;100.00;99211.97;5003251;28;20314;-87
2021/11/12 01:32:26;;;;;;;40.15;10.68;;;;;;;1.69;100.00;99202.09;5003524;28;20056;-87
2021/11/12 01:34:56;;;;;;;24.38;9.40;;;;;;;1.62;100.00;99204.50;5002890;28;20018;-87
2021/11/12 01:37:24;;;;;;;16.95;8.98;;;;;;;1.81;100.00;99202.34;5003137;28;20022;-87
2021/11/12 01:39:55;;;;;;;37.35;8.48;;;;;;;1.79;100.00;99204.06;5003372;28;20054;-87
2021/11/12 01:42:22;;;;;;;36.22;8.20;;;;;;;1.62;100.00;99199.31;5003661;28;20020;-87
2021/11/12 01:44:56;;;;;;;17.33;8.27;;;;;;;1.75;100.00;99203.94;5004303;28;20029;-87
2021/11/12 01:49:52;;;;;;;43.53;9.88;;;;;;;1.78;99.94;99198.84;5004354;28;20022;-87
2021/11/12 01:52:26;;;;;;;26.75;8.63;;;;;;;1.67;100.00;99187.31;5004543;28;20206;-87
2021/11/12 01:55:02;;;;;;;15.80;8.65;;;;;;;1.75;100.00;99186.66;5003102;28;20318;-87
2021/11/12 02:00:15;;;;;;;73.57;8.98;;;;;;;1.61;100.00;99177.66;4998377;28;20084;-87
2021/11/12 02:02:41;;;;;;;24.35;9.00;;;;;;;1.59;100.00;99174.13;5003115;28;20029;-87
2021/11/12 02:05:08;;;;;;;14.57;7.85;;;;;;;1.63;100.00;99185.47;5002594;28;20022;-87
2021/11/12 02:07:35;;;;;;;20.17;8.32;;;;;;;1.85;100.00;99178.25;5002717;28;20030;-87
2021/11/12 02:10:14;;;;;;;86.78;8.77;;;;;;;1.51;100.00;99169.63;5002719;28;20050;-87
2021/11/12 02:13:04;;;;;;;58.67;8.90;;;;;;;1.56;100.00;99170.63;4997947;28;20046;-87
2021/11/12 02:15:32;;;;;;;17.17;8.27;;;;;;;1.71;100.00;99176.19;4991797;28;20018;-87
2021/11/12 02:18:10;;;;;;;20.88;8.43;;;;;;;1.73;100.00;99171.88;5002651;28;20030;-87
2021/11/12 02:20:44;;;;;;;38.15;8.27;;;;;;;1.63;100.00;99181.19;5003196;28;20021;-87
2021/11/12 02:23:10;;;;;;;24.00;7.15;;;;;;;1.70;100.00;99182.19;5002475;28;20203;-87
2021/11/12 02:28:07;;;;;;;28.25;9.05;;;;;;;1.67;100.00;99174.31;5003911;28;20037;-88
2021/11/12 02:30:34;;;;;;;22.98;8.48;;;;;;;1.72;100.00;99185.72;5002727;28;20300;-87
2021/11/12 02:33:07;;;;;;;14.88;8.00;;;;;;;1.89;100.00;99190.47;5002675;28;20022;-87
2021/11/12 02:35:54;;;;;;;25.27;8.68;;;;;;;1.77;100.00;99182.38;5016314;28;20069;-87
2021/11/12 02:38:19;;;;;;;24.90;8.32;;;;;;;1.80;100.00;99184.16;4986152;28;20046;-87
2021/11/12 02:40:45;;;;;;;50.42;8.15;;;;;;;1.67;100.00;99182.13;5002294;28;20049;-87
2021/11/12 02:43:11;;;;;;;46.78;8.65;;;;;;;1.68;100.00;99179.56;5002434;28;20053;-88
2021/11/12 02:45:37;;;;;;;37.15;8.25;;;;;;;1.68;100.00;99176.09;5004508;28;20029;-87
2021/11/12 02:48:02;;;;;;;23.38;8.05;;;;;;;1.67;100.00;99183.00;5006209;28;20064;-87
2021/11/12 02:50:28;;;;;;;26.55;7.43;;;;;;;1.72;100.00;99180.53;5007137;28;20029;-87
2021/11/12 02:53:02;;;;;;;17.52;6.85;;;;;;;1.77;100.00;99186.72;5006146;28;20018;-87
2021/11/12 02:55:28;;;;;;;17.23;7.13;;;;;;;1.67;100.00;99176.94;5006183;28;20380;-87
2021/11/12 02:57:53;;;;;;;15.38;7.00;;;;;;;1.74;100.00;99177.13;5006093;28;20034;-87
2021/11/12 03:00:24;;;;;;;16.65;7.50;;;;;;;1.72;100.00;99178.81;5006232;28;20093;-87
2021/11/12 03:02:49;;;;;;;18.55;6.60;;;;;;;1.60;100.00;99182.81;5005343;28;20022;-87
2021/11/12 03:05:15;;;;;;;13.02;7.13;;;;;;;1.68;100.00;99181.31;5006181;28;20077;-87
2021/11/12 03:07:41;;;;;;;13.90;7.38;;;;;;;1.65;100.00;99168.25;5006737;28;20395;-87
2021/11/12 03:10:07;;;;;;;20.20;7.20;;;;;;;1.62;100.00;99168.16;5005803;28;20025;-87
2021/11/12 03:12:32;;;;;;;29.17;7.65;;;;;;;1.63;100.00;99169.91;5006791;28;20218;-87
2021/11/12 03:14:58;;;;;;;18.13;7.90;;;;;;;1.49;100.00;99166.13;5005744;28;20019;-87
2021/11/12 03:17:24;;;;;;;19.50;8.18;;;;;;;1.58;100.00;99162.03;5005467;28;20018;-87
2021/11/12 03:19:49;;;;;;;21.63;8.90;;;;;;;1.70;100.00;99156.25;5005875;28;20018;-87
2021/11/12 03:22:18;;;;;;;22.02;9.73;;;;;;;1.73;100.00;99151.13;5005461;28;20065;-87
2021/11/12 03:24:57;;;;;;;22.65;8.38;;;;;;;1.67;100.00;99156.16;5005694;28;20051;-87
2021/11/12 03:30:20;;;;;;;33.83;8.38;;;;;;;1.55;100.00;99150.72;5006883;28;20011;-87
2021/11/12 04:03:00;;;;;;;19.30;8.40;;;;;;;1.73;100.00;99151.13;5005699;28;20326;-87
2021/11/12 04:18:39;;;;;;;37.20;9.48;;;;;;;1.60;100.00;99143.91;5004584;28;20092;-87
2021/11/12 05:35:03;;;;;;;31.10;8.95;;;;;;;1.68;100.00;99080.13;5004204;28;20025;-88
2021/11/12 05:43:36;;;;;;;34.90;8.80;;;;;;;1.90;100.00;99066.75;5004204;28;20024;-87
2021/11/12 05:52:05;;;;;;;43.17;8.75;;;;;;;1.86;100.00;99080.50;5004587;28;20041;-88
2021/11/12 05:56:48;;;;;;;34.70;9.90;;;;;;;1.87;100.00;99090.06;5004533;28;20069;-88
2021/11/12 05:59:15;;;;;;;23.38;9.63;;;;;;;1.88;100.00;99097.88;5003536;28;20097;-88
2021/11/12 06:01:43;;;;;;;24.63;9.50;;;;;;;1.84;100.00;99087.38;5003637;28;20377;-88
2021/11/12 06:04:09;;;;;;;24.98;8.35;;;;;;;1.88;100.00;99089.19;5003224;28;20030;-88
2021/11/12 06:06:35;;;;;;;25.10;9.35;;;;;;;1.60;100.00;99086.81;5004423;28;20050;-88
2021/11/12 06:09:01;;;;;;;28.95;8.50;;;;;;;1.61;100.00;99088.56;5003357;28;20109;-88
2021/11/12 06:11:27;;;;;;;23.65;7.90;;;;;;;1.76;100.00;99089.81;5003547;28;20050;-88
2021/11/12 06:13:58;;;;;;;29.15;9.07;;;;;;;1.97;100.00;99094.59;5003722;28;20221;-88
2021/11/12 06:16:24;;;;;;;21.70;8.63;;;;;;;1.99;100.00;99085.09;5003604;28;20039;-88
2021/11/12 06:18:50;;;;;;;34.03;7.93;;;;;;;1.75;100.00;99063.81;5004236;28;20026;-88
2021/11/12 06:21:16;;;;;;;18.95;8.15;;;;;;;1.79;100.00;99068.25;5005366;28;20221;-88
2021/11/12 06:23:42;;;;;;;32.33;8.95;;;;;;;1.78;100.00;99066.50;5007069;28;20018;-88
2021/11/12 06:26:08;;;;;;;37.80;8.98;;;;;;;1.91;100.00;99073.69;5007050;28;20029;-88
2021/11/12 06:28:34;;;;;;;33.47;8.43;;;;;;;1.95;100.00;99075.50;5006974;28;20018;-88
2021/11/12 06:31:00;;;;;;;19.58;8.50;;;;;;;1.79;100.00;99065.63;5006941;28;20065;-88
2021/11/12 06:33:27;;;;;;;20.38;8.38;;;;;;;1.85;100.00;99069.25;5007271;28;20018;-88
2021/11/12 06:35:53;;;;;;;22.73;7.85;;;;;;;1.95;100.00;99091.97;5007263;28;20097;-88
2021/11/12 06:38:24;;;;;;;21.05;8.57;;;;;;;1.90;100.00;99092.72;5006708;28;20025;-88
2021/11/12 06:40:50;;;;;;;26.90;9.07;;;;;;;1.92;100.00;99088.41;5006781;28;20033;-88
2021/11/12 06:43:28;;;;;;;23.33;8.80;;;;;;;1.89;100.00;99086.63;5007043;28;20313;-88
2021/11/12 06:51:24;;;;;;;48.50;8.93;;;;;;;1.61;100.00;99092.06;5007841;28;20052;-88
2021/11/12 06:53:52;;;;;;;34.33;10.77;;;;;;;1.63;100.00;99086.91;5006923;28;20325;-88
2021/11/12 06:56:19;;;;;;;32.40;9.02;;;;;;;1.71;100.00;99085.38;5006498;28;20150;-88
2021/11/12 06:58:45;;;;;;;23.70;9.70;;;;;;;1.73;100.00;99094.03;5006643;28;20026;-88
2021/11/12 07:01:11;;;;;;;21.05;8.45;;;;;;;1.65;100.00;99075.72;5006672;28;20049;-88
2021/11/12 07:03:37;;;;;;;17.05;8.05;;;;;;;1.83;100.00;99081.31;5006270;28;20029;-88
2021/11/12 07:06:02;;;;;;;33.63;9.05;;;;;;;1.64;100.00;99088.66;5005761;28;20022;-88
2021/11/12 07:08:29;;;;;;;25.67;9.32;;;;;;;1.53;100.00;99080.63;5006273;28;20214;-88
2021/11/12 07:10:56;;;;;;;31.63;6.80;;;;;;;1.41;100.00;99079.47;5007358;28;20018;-88
2021/11/12 07:13:25;;;;;;;22.83;6.40;;;;;;;1.38;100.00;99089.75;5006156;28;20018;-88
2021/11/12 07:15:52;;;;;;;29.40;6.65;;;;;;;1.34;100.00;99094.03;5005925;28;20018;-88
2021/11/12 07:18:19;;;;;;;19.02;6.78;;;;;;;1.28;100.00;99098.16;5005628;28;20397;-88
2021/11/12 07:20:46;;;;;;;13.90;6.40;;;;;;;1.39;100.00;99104.50;5005605;28;20260;-88
2021/11/12 07:23:14;;;;;;;13.50;6.10;;;;;;;1.40;100.00;99108.84;5005872;28;20217;-90
2021/11/12 07:25:41;;;;;;;32.63;7.03;;;;;;;1.11;100.00;99102.06;5005913;28;20028;-90
2021/11/12 07:28:08;;;;;;;14.05;6.30;;;;;;;1.31;100.00;99114.69;5005930;28;20022;-90
2021/11/12 07:30:35;;;;;;;14.27;6.00;;;;;;;1.39;100.00;99107.09;5022348;28;20252;-90
2021/11/12 07:33:00;;;;;;;15.52;6.05;;;;;;;1.48;100.00;99102.09;5004634;28;20018;-88
2021/11/12 07:35:30;;;;;;;26.35;6.72;;;;;;;1.55;100.00;99109.22;5005615;28;20321;-88
2021/11/12 07:38:01;;;;;;;14.00;6.47;;;;;;;1.57;100.00;99108.41;5005469;28;20022;-88
2021/11/12 07:41:00;;;;;;;16.25;6.57;;;;;;;1.51;100.00;99108.25;5006771;28;20242;-88
2021/11/12 07:44:03;;;;;;;14.30;6.85;;;;;;;1.69;100.00;99102.59;5005550;28;20045;-88
2021/11/12 07:48:35;;;;;;;13.63;6.20;;;;;;;1.46;99.23;99109.00;5006640;28;20081;-88
2021/11/12 07:51:01;;;;;;;16.63;7.07;;;;;;;1.38;99.70;99102.72;5005445;28;20018;-88
2021/11/12 07:53:26;;;;;;;11.57;5.57;;;;;;;1.71;99.74;99106.13;5005695;28;20032;-88
2021/11/12 07:55:56;;;;;;;15.88;6.63;;;;;;;1.73;99.41;99096.63;5005981;28;20029;-88
2021/11/12 07:58:22;;;;;;;12.10;5.95;;;;;;;1.67;98.63;99105.16;5005640;28;20022;-88
2021/11/12 08:00:47;;;;;;;16.45;6.50;;;;;;;1.73;99.56;99104.41;5004083;28;20097;-88
2021/11/12 08:03:14;;;;;;;15.38;5.95;;;;;;;1.71;99.07;99095.75;5007755;28;20212;-88
2021/11/12 08:05:43;;;;;;;20.23;6.22;;;;;;;1.51;99.49;99091.81;5003664;28;20064;-88
2021/11/12 08:08:12;;;;;;;11.15;5.80;;;;;;;1.61;100.00;99088.56;5002021;28;20035;-88
2021/11/12 08:10:50;;;;;;;14.68;5.85;;;;;;;1.68;99.92;99098.28;5014348;28;20022;-88
2021/11/12 08:16:31;;;;;;;14.82;6.85;;;;;;;1.98;98.82;99091.16;4996708;28;20034;-88
2021/11/12 08:19:00;;;;;;;15.75;6.75;;;;;;;1.55;98.94;99072.91;5003513;28;20018;-88
2021/11/12 08:21:36;;;;;;;21.90;5.90;;;;;;;1.50;99.28;99064.13;5003925;28;20033;-88
2021/11/12 08:24:07;;;;;;;18.83;6.40;;;;;;;1.65;99.79;99072.25;5003575;28;20022;-88
2021/11/12 08:29:30;;;;;;;16.00;6.68;;;;;;;1.80;99.18;99069.97;5018070;28;20025;-88
2021/11/12 08:33:01;;;;;;;30.17;6.97;;;;;;;1.40;99.68;99049.19;5005524;28;20056;-88
2021/11/12 08:42:18;;;;;;;21.38;7.85;;;;;;;1.91;99.55;99038.25;5004778;28;20388;-88
2021/11/12 08:47:29;;;;;;;24.13;7.45;;;;;;;1.75;100.00;99045.66;5005028;28;20026;-88
2021/11/12 08:49:54;;;;;;;18.85;7.93;;;;;;;2.03;100.00;99061.84;5003540;28;20033;-88
2021/11/12 08:52:23;;;;;;;21.90;7.72;;;;;;;2.09;100.00;99069.75;5003724;28;20022;-88
2021/11/12 08:54:49;;;;;;;23.70;7.75;;;;;;;2.08;100.00;99055.03;5003740;28;20389;-88
2021/11/12 08:57:16;;;;;;;16.70;7.40;;;;;;;2.24;99.71;99064.00;5003220;28;20026;-88
2021/11/12 08:59:47;;;;;;;16.00;7.55;;;;;;;2.03;99.63;99043.66;5003227;28;20084;-88
2021/11/12 09:02:18;;;;;;;20.83;7.97;;;;;;;2.21;99.08;99048.34;5016946;28;20029;-88
2021/11/12 09:04:44;;;;;;;19.20;7.50;;;;;;;2.09;99.79;99048.13;5022795;28;20029;-88
2021/11/12 09:07:11;;;;;;;16.20;7.22;;;;;;;2.27;99.32;99053.69;5007014;28;20322;-88
2021/11/12 09:09:37;;;;;;;14.43;7.55;;;;;;;2.13;99.25;99049.94;5003213;28;20014;-88
2021/11/12 09:12:05;;;;;;;15.18;7.00;;;;;;;2.36;99.01;99048.66;5003187;28;20026;-88
2021/11/12 09:14:32;;;;;;;19.55;8.20;;;;;;;2.43;98.77;99034.94;5003267;28;20037;-88
2021/11/12 09:17:04;;;;;;;33.17;8.45;;;;;;;2.17;99.12;99030.97;5002566;28;20096;-88
2021/11/12 09:19:30;;;;;;;;;;;;;;;2.34;99.23;99033.91;5003318;28;20030;-89
2021/11/12 09:21:55;;;;;;;19.85;9.05;;;;;;;2.35;99.58;99041.72;5002732;28;19913;-88
2021/11/12 09:24:21;;;;;;;17.30;7.60;;;;;;;2.25;98.97;99035.47;5002392;28;20203;-87
2021/11/12 09:26:46;;;;;;;27.73;7.90;;;;;;;2.24;99.32;99027.66;5003090;28;20022;-88
2021/11/12 09:29:12;;;;;;;25.23;10.55;;;;;;;2.15;99.56;99027.47;5003093;28;20018;-88
2021/11/12 09:31:40;;;;;;;18.88;9.20;;;;;;;2.37;99.39;99024.44;5002832;28;20026;-88
2021/11/12 09:34:09;;;;;;;21.40;8.90;;;;;;;2.45;99.23;99033.25;5002697;28;20026;-88
2021/11/12 09:36:35;;;;;;;18.17;8.25;;;;;;;2.65;99.09;99038.84;5002589;28;20277;-88
2021/11/12 09:39:01;;;;;;;22.25;9.43;;;;;;;2.85;98.53;99040.91;5002936;28;20065;-88
2021/11/12 09:41:27;;;;;;;18.48;9.18;;;;;;;2.79;98.56;99043.44;5002972;28;20022;-88
2021/11/12 09:43:53;;;;;;;19.05;8.95;;;;;;;2.53;98.51;99038.59;5003744;28;20068;-88
2021/11/12 09:46:18;;;;;;;16.15;8.15;;;;;;;2.49;98.72;99040.25;5002581;28;20026;-88
2021/11/12 09:48:44;;;;;;;15.77;7.13;;;;;;;2.55;98.92;99044.69;5002705;28;20365;-88
2021/11/12 09:51:11;;;;;;;14.85;7.50;;;;;;;2.67;98.24;99047.50;5002556;28;20101;-88
2021/11/12 09:53:38;;;;;;;15.98;7.40;;;;;;;2.84;98.25;99039.16;5002802;28;20052;-88
2021/11/12 09:56:07;;;;;;;17.95;8.40;;;;;;;2.96;97.45;99041.97;5002103;28;20033;-88
2021/11/12 09:58:33;;;;;;;16.17;7.75;;;;;;;2.92;96.97;99024.59;5002742;28;20023;-88
2021/11/12 10:00:59;;;;;;;18.70;8.27;;;;;;;3.04;96.69;99027.34;5002756;28;20050;-88
2021/11/12 10:03:33;;;;;;;16.20;8.07;;;;;;;3.09;96.56;99046.53;5001883;28;20328;-88
2021/11/12 10:06:15;;;;;;;14.35;7.25;;;;;;;3.12;97.02;99040.50;5002496;28;20036;-88
2021/11/12 10:08:41;;;;;;;16.17;8.32;;;;;;;3.02;97.65;99044.69;5002743;28;20307;-88
2021/11/12 10:11:10;;;;;;;19.05;9.75;;;;;;;3.02;97.89;99036.88;5002346;28;20026;-88
2021/11/12 10:13:41;;;;;;;21.35;9.43;;;;;;;3.01;97.80;99027.31;5002350;28;20022;-89
2021/11/12 10:16:16;;;;;;;29.88;9.57;;;;;;;2.96;98.31;99017.69;5002227;28;20068;-88
2021/11/12 10:19:14;;;;;;;24.92;10.35;;;;;;;3.15;98.54;99025.81;5002505;28;20097;-88
2021/11/12 10:21:50;;;;;;;40.40;17.35;;;;;;;3.07;98.02;99019.63;5002275;28;20349;-88
2021/11/12 10:24:22;;;;;;;37.15;17.58;;;;;;;3.21;97.89;99005.13;5002262;28;20018;-89
2021/11/12 10:26:53;;;;;;;21.42;10.88;;;;;;;3.27;97.09;99004.34;5002557;28;20317;-88
2021/11/12 10:29:33;;;;;;;29.50;11.73;;;;;;;3.18;96.57;98992.06;5001813;28;20098;-88
2021/11/12 10:32:03;;;;;;;25.00;11.75;;;;;;;3.27;97.43;98997.41;5002237;28;20033;-89
2021/11/12 10:34:33;;;;;;;21.90;10.77;;;;;;;3.32;96.71;98985.34;5004052;28;20030;-88
2021/11/12 10:37:01;;;;;;;24.60;10.98;;;;;;;3.60;95.85;99000.50;5005958;28;20022;-88
2021/11/12 10:39:34;;;;;;;25.08;11.52;;;;;;;3.56;96.02;98993.50;5001797;28;20062;-88
2021/11/12 10:42:06;;;;;;;26.98;11.60;;;;;;;3.61;96.04;98991.81;5002152;28;20101;-88
2021/11/12 10:44:39;;;;;;;26.23;11.98;;;;;;;3.61;96.67;98973.59;5021805;28;20348;-88
2021/11/12 10:47:06;;;;;;;27.75;11.45;;;;;;;3.65;96.15;98977.13;5021683;28;20030;-88
2021/11/12 10:49:38;;;;;;;22.02;10.52;;;;;;;3.68;96.39;98983.25;5021674;28;20380;-88
2021/11/12 10:52:10;;;;;;;26.98;11.93;;;;;;;3.72;96.52;98968.53;5011681;28;20025;-88
2021/11/12 10:54:58;;;;;;;27.20;12.00;;;;;;;3.67;96.95;98976.28;5001448;28;20030;-88
2021/11/12 10:57:54;;;;;;;28.40;12.05;;;;;;;3.90;97.11;98969.63;5002378;28;20218;-88
2021/11/12 11:00:26;;;;;;;27.70;11.38;;;;;;;3.85;96.11;98967.84;5001334;28;20042;-88
2021/11/12 11:03:09;;;;;;;25.40;11.82;;;;;;;3.97;96.06;98971.47;5002019;28;20026;-88
2021/11/12 11:05:51;;;;;;;27.15;12.77;;;;;;;4.06;96.08;98963.78;5003704;28;20030;-88
2021/11/12 11:08:20;;;;;;;24.92;11.48;;;;;;;4.00;96.01;98957.59;5005055;28;20042;-88
2021/11/12 11:10:52;;;;;;;28.48;11.82;;;;;;;3.90;96.08;98953.16;5005336;28;20037;-88
2021/11/12 11:13:23;;;;;;;27.38;12.23;;;;;;;3.85;95.53;98942.69;5005368;28;20045;-88
2021/11/12 11:15:51;;;;;;;26.90;12.23;;;;;;;4.00;94.47;98929.84;5005285;28;20250;-88
2021/11/12 11:18:28;;;;;;;23.63;11.52;;;;;;;4.05;94.78;98922.94;5005450;28;20033;-88
2021/11/12 11:21:00;;;;;;;27.75;11.75;;;;;;;3.95;95.52;98913.28;5005075;28;20249;-88
2021/11/12 11:23:28;;;;;;;26.02;12.05;;;;;;;4.06;96.03;98911.69;5005414;28;20022;-88
2021/11/12 11:26:03;;;;;;;36.33;13.10;;;;;;;3.96;97.05;98907.22;5004720;28;20310;-89
2021/11/12 11:28:30;;;;;;;29.75;12.70;;;;;;;4.14;97.37;98912.63;5004458;28;20042;-89
2021/11/12 11:30:56;;;;;;;28.58;12.35;;;;;;;4.02;95.27;98896.88;5004277;28;20026;-88
2021/11/12 11:33:22;;;;;;;25.25;11.93;;;;;;;4.21;95.04;98898.78;5004828;28;20022;-88
2021/11/12 11:35:48;;;;;;;29.13;12.68;;;;;;;4.25;95.17;98897.09;5020894;28;20018;-89
2021/11/12 11:38:16;;;;;;;34.05;14.57;;;;;;;4.27;95.58;98904.06;5004454;28;20014;-89
2021/11/12 11:40:49;;;;;;;35.58;15.13;;;;;;;4.14;96.80;98898.72;5004972;28;20061;-89
2021/11/12 11:43:15;;;;;;;31.60;13.77;;;;;;;4.22;97.61;98905.78;5003424;28;20376;-89
2021/11/12 11:45:44;;;;;;;29.35;12.88;;;;;;;4.43;97.51;98911.16;5004605;28;20029;-89
2021/11/12 11:48:10;;;;;;;32.40;14.23;;;;;;;4.47;96.76;98912.09;5004264;28;20069;-89
2021/11/12 11:50:36;;;;;;;33.10;13.73;;;;;;;4.53;95.82;98890.41;5004754;28;20037;-89
2021/11/12 11:53:23;;;;;;;29.25;13.95;;;;;;;4.50;95.71;98888.66;5004581;28;20014;-89
2021/11/12 11:55:48;;;;;;;30.40;13.10;;;;;;;4.57;94.55;98889.56;5004216;28;20053;-89
2021/11/12 11:58:32;;;;;;;28.63;13.80;;;;;;;4.44;94.30;98879.03;5004290;28;20018;-89
2021/11/12 12:01:16;;;;;;;29.80;13.02;;;;;;;4.33;94.67;98878.06;5002185;28;20029;-89
2021/11/12 12:03:43;;;;;;;32.45;13.20;;;;;;;4.30;96.10;98871.94;5004358;28;20324;-89
2021/11/12 12:06:14;;;;;;;25.40;11.77;;;;;;;4.45;95.48;98872.97;5004229;28;20026;-89
2021/11/12 12:09:18;;;;;;;27.48;13.10;;;;;;;4.44;95.25;98854.72;5004025;28;20017;-89
2021/11/12 12:11:55;;;;;;;26.92;13.05;;;;;;;4.44;96.35;98873.81;5003954;28;20040;-89
2021/11/12 12:14:33;;;;;;;29.30;13.85;;;;;;;4.41;97.47;98860.78;5003611;28;20030;-88
2021/11/12 12:16:59;;;;;;;34.30;15.15;;;;;;;4.52;97.22;98873.88;5003684;28;20025;-88
2021/11/12 12:19:56;;;;;;;41.25;16.30;;;;;;;4.66;96.64;98871.38;5003312;28;20026;-87
2021/11/12 13:25:31;;;;;;;34.70;15.57;;;;;;;5.11;94.59;98851.72;4994052;28;20030;-88
2021/11/12 13:28:16;;;;;;;32.15;16.33;;;;;;;5.23;94.81;98850.91;5002366;28;20314;-88
2021/11/12 13:31:12;;;;;;;38.05;17.55;;;;;;;5.19;95.13;98854.38;5000622;28;20030;-87
2021/11/12 13:33:48;;;;;;;31.50;15.90;;;;;;;5.28;94.62;98859.63;4993492;28;20029;-87
2021/11/12 13:36:20;;;;;;;33.60;15.88;;;;;;;5.37;93.99;98854.44;5001703;28;20022;-88
2021/11/12 13:38:55;;;;;;;36.07;16.60;;;;;;;4.99;94.17;98850.75;5001315;28;20030;-88
2021/11/12 13:41:25;;;;;;;33.08;15.38;;;;;;;5.14;94.44;98846.50;5000883;28;20049;-88
2021/11/12 13:43:57;;;;;;;32.33;15.82;;;;;;;5.16;94.14;98849.97;5002254;28;20029;-88
2021/11/12 13:46:22;;;;;;;;;;;;;;;5.26;94.32;98841.34;5002350;28;20018;-88
2021/11/12 13:48:52;;;;;;;39.35;17.88;;;;;;;5.20;94.54;98832.63;5001770;28;19976;-88
2021/11/12 13:51:26;;;;;;;37.63;17.90;;;;;;;5.11;94.34;98835.16;5002070;28;20026;-88
2021/11/12 13:53:52;;;;;;;38.25;18.92;;;;;;;5.19;93.87;98844.78;5001976;28;20309;-88
2021/11/12 13:56:18;;;;;;;38.17;19.33;;;;;;;5.16;95.10;98849.13;5002293;28;20030;-88
2021/11/12 13:58:45;;;;;;;40.33;19.25;;;;;;;5.28;94.64;98843.97;5000385;28;20101;-88
2021/11/12 14:01:28;;;;;;;36.22;18.90;;;;;;;5.33;93.81;98837.03;5001916;28;20030;-86
2021/11/12 14:03:55;;;;;;;35.05;18.35;;;;;;;5.35;94.12;98845.75;5002956;28;20325;-88
2021/11/12 14:06:32;;;;;;;45.88;20.63;;;;;;;5.39;94.06;98850.09;5002580;28;20351;-87
2021/11/12 14:09:03;;;;;;;38.17;18.55;;;;;;;5.21;93.74;98832.63;5002903;28;20033;-89
2021/11/12 14:11:31;;;;;;;40.20;19.77;;;;;;;5.21;94.09;98836.97;5002932;28;20093;-89
2021/11/12 14:14:02;;;;;;;42.38;19.90;;;;;;;5.36;94.08;98839.66;5003034;28;20421;-87
2021/11/12 14:16:48;;;;;;;42.63;19.52;;;;;;;5.33;94.20;98837.91;5003028;28;20022;-89
2021/11/12 14:22:12;;;;;;;37.05;18.92;;;;;;;5.28;94.36;98828.31;5004685;28;20101;-87
2021/11/12 14:24:50;;;;;;;40.28;18.92;;;;;;;5.23;93.69;98835.25;5002515;28;20023;-87
2021/11/12 14:27:43;;;;;;;36.00;19.17;;;;;;;5.28;92.42;98830.94;5003007;28;20022;-88
2021/11/12 14:30:45;;;;;;;42.85;20.63;;;;;;;5.12;93.30;98831.72;5003150;28;20340;-88
2021/11/12 14:35:55;;;;;;;37.72;19.83;;;;;;;5.13;93.56;98831.72;5003948;28;20321;-88
2021/11/12 14:38:37;;;;;;;41.22;20.25;;;;;;;5.10;94.27;98818.66;5003016;28;20031;-88
2021/11/12 14:52:02;;;;;;;41.22;20.83;;;;;;;4.99;93.31;98815.13;5008022;28;20097;-88
2021/11/12 14:54:33;;;;;;;44.70;21.83;;;;;;;4.94;95.10;98797.69;5006597;28;20032;-88
2021/11/12 14:57:01;;;;;;;45.70;23.40;;;;;;;4.86;95.42;98783.72;5006730;28;20214;-88
2021/11/12 14:59:26;;;;;;;43.67;22.15;;;;;;;4.85;94.20;98789.81;5006805;28;20022;-88
2021/11/12 15:01:52;;;;;;;46.30;22.17;;;;;;;4.88;94.96;98801.16;5006721;28;20194;-88
2021/11/12 15:04:18;;;;;;;42.92;21.10;;;;;;;4.86;94.35;98796.78;5006665;28;20277;-88
2021/11/12 15:06:44;;;;;;;47.30;23.02;;;;;;;4.80;95.04;98800.22;5004685;28;20060;-88
2021/11/12 15:11:43;;;;;;;43.08;21.15;;;;;;;4.79;95.91;98802.81;5007767;28;20033;-88
2021/11/12 15:14:15;;;;;;;49.67;23.50;;;;;;;4.78;95.52;98798.47;5006878;28;20018;-88
2021/11/12 15:16:41;;;;;;;46.03;23.77;;;;;;;4.76;95.39;98784.56;5006356;28;20225;-88
2021/11/12 15:19:11;;;;;;;47.67;22.73;;;;;;;4.68;96.02;98786.25;5006078;28;20069;-88
2021/11/12 15:22:29;;;;;;;45.70;22.10;;;;;;;4.61;95.96;98780.13;5006135;28;20360;-88
2021/11/12 15:29:31;;;;;;;44.25;21.42;;;;;;;4.75;96.32;98798.47;5007430;28;20205;-88
2021/11/12 15:34:28;;;;;;;43.15;21.63;;;;;;;4.73;96.41;98821.03;5007011;28;20353;-88
2021/11/12 15:37:00;;;;;;;44.45;21.08;;;;;;;4.68;96.96;98794.94;5005792;28;20022;-88
2021/11/12 15:44:57;;;;;;;43.45;21.75;;;;;;;4.79;97.62;98810.66;5006879;28;20404;-88
2021/11/12 15:49:53;;;;;;;49.03;24.20;;;;;;;4.89;97.05;98822.88;5006956;28;20030;-88
2021/11/12 15:52:29;;;;;;;47.40;22.75;;;;;;;4.92;97.29;98807.25;5005462;28;20029;-88
2021/11/12 15:55:14;;;;;;;45.83;22.48;;;;;;;4.94;96.63;98810.75;5004371;28;20089;-88
2021/11/12 16:14:16;;;;;;;38.78;21.23;;;;;;;4.59;96.53;98796.63;5005374;28;20029;-88
2021/11/12 16:19:45;;;;;;;46.53;21.55;;;;;;;4.49;97.79;98793.94;5004210;28;20026;-87
2021/11/12 16:27:27;;;;;;;39.33;20.67;;;;;;;4.55;97.51;98790.50;5004471;28;20028;-87
2021/11/12 16:29:53;;;;;;;41.00;21.90;;;;;;;4.52;97.23;98789.63;5003708;28;20038;-87
2021/11/12 16:32:24;;;;;;;40.38;20.45;;;;;;;4.41;98.13;98785.22;5003390;28;20025;-87
2021/11/12 16:34:55;;;;;;;45.22;22.98;;;;;;;4.46;97.91;98783.50;5004290;28;20022;-87
2021/11/12 16:37:23;;;;;;;42.97;22.63;;;;;;;4.42;97.65;98799.97;5002754;28;20022;-87
2021/11/12 16:45:09;;;;;;;41.88;22.17;;;;;;;4.63;98.05;98808.81;4998532;28;20018;-87
2021/11/12 16:47:45;;;;;;;48.88;24.60;;;;;;;4.48;97.40;98805.25;5002988;28;20042;-87
2021/11/12 16:50:20;;;;;;;46.17;22.85;;;;;;;4.45;97.54;98820.84;5002580;28;20065;-87
2021/11/12 17:02:47;;;;;;;49.63;24.25;;;;;;;4.66;97.46;98829.69;5003846;28;20045;-87
2021/11/12 17:05:20;;;;;;;50.67;22.35;;;;;;;4.63;97.78;98824.44;5002524;28;20033;-87
2021/11/12 17:08:06;;;;;;;49.53;22.85;;;;;;;4.69;97.60;98834.91;5002533;28;20041;-87
2021/11/12 17:13:18;;;;;;;56.85;25.65;;;;;;;4.68;97.61;98834.03;5004078;28;20022;-87
2021/11/12 17:18:46;;;;;;;47.28;24.25;;;;;;;4.69;97.11;98840.13;5003538;28;19916;-87
2021/11/12 17:45:53;;;;;;;62.58;27.35;;;;;;;4.28;98.35;98817.22;5002648;28;20202;-88